Terminal Aerodrome Forecast
Issued by NWS

Home | Current Version | Previous Version | Text Only | Print | Product List | Glossary Off
Versions: 1 2 3 4 5 6 7 8 9 10 11 12 13 14 15 16

000
FTUS43 KICT 290500
TAFSLN
TAF
KSLN 290520Z 2906/3006 17009KT P6SM SCT060 BKN090
     FM290700 17009KT P6SM VCTS SCT060CB BKN090
      TEMPO 2907/2911 VRB15G30KT 3SM TSRA OVC050CB
     FM291100 21006KT P6SM BKN100
     FM291500 22009KT P6SM BKN120
     FM300000 17005KT P6SM BKN070=

USA.gov is the U.S. government's official web portal to all federal, state and local government web resources and services.